KDYS

Dyess AFB Airport

Abilene, Texas, USA
METAR KDYS 221356Z AUTO 16004KT 10SM CLR 12/07 A3018 RMK AO2 SLP206 T01230070
Observed Flight Rules
Oct-22 @ 13:56 UTC (an hour ago) Visual Flight Rules
Wind Visibility Clouds
160° at 4 knots 10 miles
  • Clear skies
Temperatures Readings
Current 12°C / 54°F
Dewpoint 7°C / 45°F
Humidity 72%
Altimeter 30.18" Hg
Pressure 1020.6 hPa
Elevation 545
METAR KDYS 221356Z AUTO 16004KT 10SM CLR 12/07 A3018 RMK AO2 SLP206 T01230070
Observed Flight Rules
Oct-22 @ 13:56 UTC
(an hour ago)
VFR
Wind Visibility
160° at 4 knots 10 miles
Clouds
  • Clear skies
Temperature Dewpoint
12°C / 54°F 7°C / 45°F
Humidity Altimeter Pressure
72% 30.18" Hg 1020.6 hPa